African Highway — 3EOD8 — position and weather

sailwx.info

Track history (hours):
 
Tides and Currents Weather Stations Pressure Air Temp Water Temp Dewpoint Dewpoint Depression Visibility Wind Speed Wind Dir Waves Ship Positions

African Highway

Last reported at 2014-Oct-20 23:33 UTC. Time now 2014-Oct-21 00:32 UTC.
Position N 53°46' E 005°59'.

Length 154.5 m; beam 27.6 m.

Type: Cargo ship. MMSI: 353633000.

Date/timePositionNaut miles runAvg speedWind from/ knotsBaromVisibWave heightAir tempDewpointWater temp
2014-Oct-20 23:33N 53°46' E 005°59'1211.8
2014-Oct-20 22:33N 53°43' E 006°18'1110.9
2014-Oct-20 21:33N 53°37' E 006°34'1616.0
2014-Oct-20 20:33N 53°26' E 006°54'1010.1
2014-Oct-20 19:33N 53°20' E 007°07'2 1.5
2014-Oct-20 18:32N 53°20' E 007°10'0 0.0
2014-Oct-20 17:32N 53°20' E 007°10'0 0.0
2014-Oct-20 16:32N 53°20' E 007°10'0 0.0
2014-Oct-20 15:32N 53°20' E 007°10'0 0.0
2014-Oct-20 14:32N 53°20' E 007°10'0 0.0
2014-Oct-20 13:32N 53°20' E 007°10'0 0.0
2014-Oct-20 12:32N 53°20' E 007°10'0 0.0
2014-Oct-20 11:32N 53°20' E 007°10'0 0.0
2014-Oct-20 10:32N 53°20' E 007°10'0 0.0
2014-Oct-20 09:32N 53°20' E 007°10'0 0.0
2014-Oct-20 08:32N 53°20' E 007°10'0 0.0
2014-Oct-20 07:32N 53°20' E 007°10'0 0.0
2014-Oct-20 06:32N 53°20' E 007°10'0 0.0
2014-Oct-20 05:32N 53°20' E 007°10'0 0.0
2014-Oct-20 04:32N 53°20' E 007°10'0 0.0
2014-Oct-20 03:32N 53°20' E 007°10'0 0.0
2014-Oct-20 02:32N 53°20' E 007°10'0 0.0
2014-Oct-20 01:32N 53°20' E 007°10'0 0.0
2014-Oct-20 00:32N 53°20' E 007°10'0 0.0
2014-Oct-19 23:29N 53°20' E 007°10'0 0.0
2014-Oct-19 22:32N 53°20' E 007°10'0 0.0
2014-Oct-19 21:29N 53°20' E 007°10'2 1.9
2014-Oct-19 20:33N 53°20' E 007°07'1111.5
2014-Oct-19 19:33N 53°27' E 006°52'1313.3
2014-Oct-19 18:34N 53°36' E 006°35'1211.7
2014-Oct-19 17:33N 53°38' E 006°16'1 1.1
2014-Oct-19 16:33N 53°38' E 006°18'1414.4
2014-Oct-19 15:33N 53°37' E 005°53'1212.3
2014-Oct-19 14:34N 53°49' E 005°51'1414.2
2014-Oct-19 13:33N 53°55' E 005°29'1615.9
2014-Oct-19 12:34N 53°58' E 005°03'1615.7
2014-Oct-19 11:34N 53°60' E 004°36'14015.5
2014-Oct-19 02:33N 53°35' E 000°44'1515.5
2014-Oct-19 01:33N 53°32' E 000°18'10 9.6
2014-Oct-19 00:33N 53°35' E 000°02'4 3.5
2014-Oct-18 23:28N 53°35' W 000°04'0 0.0
2014-Oct-18 22:33N 53°35' W 000°04'0 0.0
2014-Oct-18 21:27N 53°35' W 000°04'0 0.0
2014-Oct-18 20:34N 53°35' W 000°04'0 0.0
2014-Oct-18 19:31N 53°35' W 000°04'0 0.0
2014-Oct-18 18:28N 53°35' W 000°04'0 0.0
2014-Oct-18 17:34N 53°35' W 000°04'0 0.0
2014-Oct-18 16:34N 53°35' W 000°04'0 0.0
2014-Oct-18 15:30N 53°35' W 000°04'0 0.0
2014-Oct-18 14:33N 53°35' W 000°04'0 0.0
2014-Oct-18 13:31N 53°35' W 000°04'0 0.0
2014-Oct-18 12:33N 53°35' W 000°04'0 0.0
2014-Oct-18 11:33N 53°35' W 000°04'0 0.0
2014-Oct-18 10:31N 53°35' W 000°04'0 0.0
2014-Oct-18 09:31N 53°35' W 000°04'0 0.0
2014-Oct-18 08:33N 53°35' W 000°04'0 0.0
2014-Oct-18 07:34N 53°35' W 000°04'0 0.0
2014-Oct-18 06:33N 53°35' W 000°04'0 0.0
2014-Oct-18 05:34N 53°35' W 000°04'0 0.0
2014-Oct-18 04:30N 53°35' W 000°04'0 0.0
2014-Oct-18 03:30N 53°35' W 000°04'0 0.0
2014-Oct-18 02:34N 53°35' W 000°04'0 0.0
2014-Oct-18 01:33N 53°35' W 000°04'1 0.7
2014-Oct-18 00:33N 53°35' W 000°03'9 8.6
2014-Oct-17 23:33N 53°33' E 000°11'8 7.6
2014-Oct-17 22:33N 53°33' E 000°24'1312.3
2014-Oct-17 21:32N 53°35' E 000°45'32 3.2
2014-Oct-17 11:28N 53°51' E 001°33'110 9.9
2014-Oct-17 00:21N 54°03' E 004°38'1113.8
2014-Oct-16 23:33N 54°02' E 004°57'1413.9
2014-Oct-16 22:33N 53°59' E 005°20'1414.1
2014-Oct-16 21:33N 53°55' E 005°43'1514.6
2014-Oct-16 20:33N 53°52' E 006°07'1211.1
2014-Oct-16 19:31N 53°43' E 006°19'10 9.9
2014-Oct-16 18:33N 53°37' E 006°32'1616.1
2014-Oct-16 17:33N 53°27' E 006°53'1111.2
2014-Oct-16 16:33N 53°20' E 007°08'2 2.2
2014-Oct-16 15:31N 53°21' E 007°12'0 0.0
2014-Oct-16 14:31N 53°21' E 007°12'0 0.0
2014-Oct-16 13:31N 53°21' E 007°12'0 0.0
2014-Oct-16 12:31N 53°21' E 007°12'0 0.0
2014-Oct-16 11:31N 53°21' E 007°12'0 0.0
2014-Oct-16 10:31N 53°21' E 007°12'0 0.0
2014-Oct-16 09:28N 53°21' E 007°12'0 0.0
2014-Oct-16 08:31N 53°21' E 007°12'0 0.0
2014-Oct-16 07:31N 53°21' E 007°12'0 0.0
2014-Oct-16 06:31N 53°21' E 007°12'0 0.0
2014-Oct-16 05:31N 53°21' E 007°12'0 0.5
2014-Oct-16 04:33N 53°20' E 007°11'6 5.8
2014-Oct-16 03:33N 53°19' E 007°02'1312.9
2014-Oct-16 02:33N 53°30' E 006°49'1514.6
2014-Oct-16 01:33N 53°37' E 006°27'7 6.8
2014-Oct-16 00:34N 53°40' E 006°17'1212.0
2014-Oct-15 23:33N 53°51' E 006°09'1817.6
2014-Oct-15 22:34N 53°55' E 005°40'1717.3
2014-Oct-15 21:33N 53°59' E 005°11'1716.8
2014-Oct-15 20:33N 54°00' E 004°42'14115.7
2014-Oct-15 11:32N 53°35' E 000°46'1414.9
2014-Oct-15 10:34N 53°32' E 000°22'9 9.3
2014-Oct-15 09:33N 53°33' E 000°07'7 6.5
2014-Oct-15 08:32N 53°35' W 000°04'0 0.0
2014-Oct-15 07:32N 53°35' W 000°04'0 0.0
2014-Oct-15 06:29N 53°35' W 000°04'0 0.0
2014-Oct-15 05:32N 53°35' W 000°04'0 0.0
2014-Oct-15 04:32N 53°35' W 000°04'0 0.0
2014-Oct-15 03:32N 53°35' W 000°04'0 0.0
2014-Oct-15 02:32N 53°35' W 000°04'0 0.0
2014-Oct-15 01:29N 53°35' W 000°04'0 0.0
2014-Oct-15 00:32N 53°35' W 000°04'0 0.0
2014-Oct-14 23:26N 53°35' W 000°04'0 0.0
2014-Oct-14 22:32N 53°35' W 000°04'0 0.0
2014-Oct-14 21:29N 53°35' W 000°04'2 1.9
2014-Oct-14 20:33N 53°35' W 000°01'1010.1
2014-Oct-14 19:33N 53°33' E 000°16'7 6.8
2014-Oct-14 18:33N 53°33' E 000°27'1413.6
2014-Oct-14 17:33N 53°36' E 000°50'14011.5
2014-Oct-14 05:20N 54°03' E 004°43'1215.5
2014-Oct-14 04:33N 53°60' E 005°03'1615.7
2014-Oct-14 03:32N 53°56' E 005°30'1515.6
2014-Oct-14 02:34N 53°53' E 005°55'1413.5
2014-Oct-14 01:31N 53°45' E 006°14'1211.9
2014-Oct-14 00:33N 53°37' E 006°29'1313.3
2014-Oct-13 23:33N 53°30' E 006°48'1211.7
2014-Oct-13 22:33N 53°21' E 006°59'7 7.0
2014-Oct-13 21:33N 53°20' E 007°11'1 0.5
2014-Oct-13 20:32N 53°21' E 007°12'0 0.0
2014-Oct-13 19:32N 53°21' E 007°12'0 0.0
2014-Oct-13 18:32N 53°21' E 007°12'0 0.0
2014-Oct-13 17:32N 53°21' E 007°12'0 0.0
2014-Oct-13 16:32N 53°21' E 007°12'0 0.0
2014-Oct-13 15:32N 53°21' E 007°12'0 0.0
2014-Oct-13 14:32N 53°21' E 007°12'0 0.0
2014-Oct-13 13:32N 53°21' E 007°12'0 0.0
2014-Oct-13 12:32N 53°21' E 007°12'0 0.0
2014-Oct-13 11:32N 53°21' E 007°12'0 0.0
2014-Oct-13 10:32N 53°21' E 007°12'0 0.0
2014-Oct-13 09:33N 53°21' E 007°12'1 1.2
2014-Oct-13 08:34N 53°20' E 007°10'8 8.1
2014-Oct-13 07:33N 53°23' E 006°58'1313.1
2014-Oct-13 06:33N 53°33' E 006°42'1212.3
2014-Oct-13 05:33N 53°37' E 006°23'9 9.5
2014-Oct-13 04:33N 53°38' E 006°07'1312.6
2014-Oct-13 03:33N 53°37' E 005°46'1414.2
2014-Oct-13 02:33N 53°33' E 005°23'1414.4
2014-Oct-13 01:33N 53°28' E 005°01'1414.2
2014-Oct-13 00:33N 53°20' E 004°41'1515.1
2014-Oct-12 23:33N 53°07' E 004°29'1514.7
2014-Oct-12 22:33N 52°54' E 004°17'1414.0
2014-Oct-12 21:33N 52°43' E 004°03'1514.8
2014-Oct-12 20:33N 52°32' E 003°47'1515.3
2014-Oct-12 19:33N 52°21' E 003°29'1715.8
2014-Oct-12 18:28N 52°09' E 003°08'3315.8
2014-Oct-12 16:21N 51°51' E 002°23'1316.8
2014-Oct-12 15:33N 51°43' E 002°06'1717.4
2014-Oct-12 14:33N 51°32' E 001°43'1211.9
2014-Oct-12 13:34N 51°27' E 001°26'1110.9
2014-Oct-12 12:34N 51°29' E 001°09'1111.5
2014-Oct-12 11:34N 51°28' E 000°51'4 4.3
2014-Oct-12 10:32N 51°26' E 000°44'0 0.0
2014-Oct-12 09:32N 51°26' E 000°44'0 0.0
2014-Oct-12 08:32N 51°26' E 000°44'0 0.0
2014-Oct-12 07:32N 51°26' E 000°44'0 0.0
2014-Oct-12 06:32N 51°26' E 000°44'0 0.0
2014-Oct-12 05:32N 51°26' E 000°44'0 0.0
2014-Oct-12 04:29N 51°26' E 000°44'0 0.0
2014-Oct-12 03:32N 51°26' E 000°44'0 0.0
2014-Oct-12 02:32N 51°26' E 000°44'0 0.0
2014-Oct-12 01:32N 51°26' E 000°44'0 0.0
2014-Oct-12 00:32N 51°26' E 000°44'0 0.0
2014-Oct-11 23:32N 51°26' E 000°44'0 0.0
2014-Oct-11 22:32N 51°26' E 000°44'0 0.0
2014-Oct-11 21:32N 51°26' E 000°44'0 0.0
2014-Oct-11 20:32N 51°26' E 000°44'0 0.0
2014-Oct-11 19:32N 51°26' E 000°44'0 0.0
2014-Oct-11 18:32N 51°26' E 000°44'2 1.8
2014-Oct-11 17:33N 51°28' E 000°46'10 9.7
2014-Oct-11 16:33N 51°30' E 001°02'1111.2
2014-Oct-11 15:34N 51°29' E 001°19'10 9.6
2014-Oct-11 14:34N 51°28' E 001°35'1313.3
2014-Oct-11 13:33N 51°35' E 001°53'10 9.7
2014-Oct-11 12:33N 51°39' E 002°07'1 1.1
2014-Oct-11 11:33N 51°40' E 002°06'2 2.0
2014-Oct-11 10:33N 51°42' E 002°06'2 1.6
2014-Oct-11 09:33N 51°43' E 002°08'9 8.4
2014-Oct-11 08:32N 51°47' E 002°20'6014.4
2014-Oct-11 04:23N 52°32' E 003°24'1113.2
2014-Oct-11 03:34N 52°41' E 003°35'1413.6
2014-Oct-11 02:33N 52°52' E 003°49'1515.0
2014-Oct-11 01:33N 53°01' E 004°08'1615.3
2014-Oct-11 00:31N 53°12' E 004°27'  
Track history (hours):
 
Tides and Currents Weather Stations Pressure Air Temp Water Temp Dewpoint Dewpoint Depression Visibility Wind Speed Wind Dir Waves Ship Positions

African Highway

Last reported at 2014-Oct-20 23:33 UTC. Time now 2014-Oct-21 00:32 UTC.
Position N 53°46' E 005°59'.

Length 154.5 m; beam 27.6 m.

Type: Cargo ship. MMSI: 353633000.

Date/timePositionNaut miles runAvg speedWind from/ knotsBaromVisibWave heightAir tempDewpointWater temp
2014-Oct-20 23:33N 53°46' E 005°59'1211.8
2014-Oct-20 22:33N 53°43' E 006°18'1110.9
2014-Oct-20 21:33N 53°37' E 006°34'1616.0
2014-Oct-20 20:33N 53°26' E 006°54'1010.1
2014-Oct-20 19:33N 53°20' E 007°07'2 1.5
2014-Oct-20 18:32N 53°20' E 007°10'0 0.0
2014-Oct-20 17:32N 53°20' E 007°10'0 0.0
2014-Oct-20 16:32N 53°20' E 007°10'0 0.0
2014-Oct-20 15:32N 53°20' E 007°10'0 0.0
2014-Oct-20 14:32N 53°20' E 007°10'0 0.0
2014-Oct-20 13:32N 53°20' E 007°10'0 0.0
2014-Oct-20 12:32N 53°20' E 007°10'0 0.0
2014-Oct-20 11:32N 53°20' E 007°10'0 0.0
2014-Oct-20 10:32N 53°20' E 007°10'0 0.0
2014-Oct-20 09:32N 53°20' E 007°10'0 0.0
2014-Oct-20 08:32N 53°20' E 007°10'0 0.0
2014-Oct-20 07:32N 53°20' E 007°10'0 0.0
2014-Oct-20 06:32N 53°20' E 007°10'0 0.0
2014-Oct-20 05:32N 53°20' E 007°10'0 0.0
2014-Oct-20 04:32N 53°20' E 007°10'0 0.0
2014-Oct-20 03:32N 53°20' E 007°10'0 0.0
2014-Oct-20 02:32N 53°20' E 007°10'0 0.0
2014-Oct-20 01:32N 53°20' E 007°10'0 0.0
2014-Oct-20 00:32N 53°20' E 007°10'0 0.0
2014-Oct-19 23:29N 53°20' E 007°10'0 0.0
2014-Oct-19 22:32N 53°20' E 007°10'0 0.0
2014-Oct-19 21:29N 53°20' E 007°10'2 1.9
2014-Oct-19 20:33N 53°20' E 007°07'1111.5
2014-Oct-19 19:33N 53°27' E 006°52'1313.3
2014-Oct-19 18:34N 53°36' E 006°35'1211.7
2014-Oct-19 17:33N 53°38' E 006°16'1 1.1
2014-Oct-19 16:33N 53°38' E 006°18'1414.4
2014-Oct-19 15:33N 53°37' E 005°53'1212.3
2014-Oct-19 14:34N 53°49' E 005°51'1414.2
2014-Oct-19 13:33N 53°55' E 005°29'1615.9
2014-Oct-19 12:34N 53°58' E 005°03'1615.7
2014-Oct-19 11:34N 53°60' E 004°36'14015.5
2014-Oct-19 02:33N 53°35' E 000°44'1515.5
2014-Oct-19 01:33N 53°32' E 000°18'10 9.6
2014-Oct-19 00:33N 53°35' E 000°02'4 3.5
2014-Oct-18 23:28N 53°35' W 000°04'0 0.0
2014-Oct-18 22:33N 53°35' W 000°04'0 0.0
2014-Oct-18 21:27N 53°35' W 000°04'0 0.0
2014-Oct-18 20:34N 53°35' W 000°04'0 0.0
2014-Oct-18 19:31N 53°35' W 000°04'0 0.0
2014-Oct-18 18:28N 53°35' W 000°04'0 0.0
2014-Oct-18 17:34N 53°35' W 000°04'0 0.0
2014-Oct-18 16:34N 53°35' W 000°04'0 0.0
2014-Oct-18 15:30N 53°35' W 000°04'0 0.0
2014-Oct-18 14:33N 53°35' W 000°04'0 0.0
2014-Oct-18 13:31N 53°35' W 000°04'0 0.0
2014-Oct-18 12:33N 53°35' W 000°04'0 0.0
2014-Oct-18 11:33N 53°35' W 000°04'0 0.0
2014-Oct-18 10:31N 53°35' W 000°04'0 0.0
2014-Oct-18 09:31N 53°35' W 000°04'0 0.0
2014-Oct-18 08:33N 53°35' W 000°04'0 0.0
2014-Oct-18 07:34N 53°35' W 000°04'0 0.0
2014-Oct-18 06:33N 53°35' W 000°04'0 0.0
2014-Oct-18 05:34N 53°35' W 000°04'0 0.0
2014-Oct-18 04:30N 53°35' W 000°04'0 0.0
2014-Oct-18 03:30N 53°35' W 000°04'0 0.0
2014-Oct-18 02:34N 53°35' W 000°04'0 0.0
2014-Oct-18 01:33N 53°35' W 000°04'1 0.7
2014-Oct-18 00:33N 53°35' W 000°03'9 8.6
2014-Oct-17 23:33N 53°33' E 000°11'8 7.6
2014-Oct-17 22:33N 53°33' E 000°24'1312.3
2014-Oct-17 21:32N 53°35' E 000°45'32 3.2
2014-Oct-17 11:28N 53°51' E 001°33'110 9.9
2014-Oct-17 00:21N 54°03' E 004°38'1113.8
2014-Oct-16 23:33N 54°02' E 004°57'1413.9
2014-Oct-16 22:33N 53°59' E 005°20'1414.1
2014-Oct-16 21:33N 53°55' E 005°43'1514.6
2014-Oct-16 20:33N 53°52' E 006°07'1211.1
2014-Oct-16 19:31N 53°43' E 006°19'10 9.9
2014-Oct-16 18:33N 53°37' E 006°32'1616.1
2014-Oct-16 17:33N 53°27' E 006°53'1111.2
2014-Oct-16 16:33N 53°20' E 007°08'2 2.2
2014-Oct-16 15:31N 53°21' E 007°12'0 0.0
2014-Oct-16 14:31N 53°21' E 007°12'0 0.0
2014-Oct-16 13:31N 53°21' E 007°12'0 0.0
2014-Oct-16 12:31N 53°21' E 007°12'0 0.0
2014-Oct-16 11:31N 53°21' E 007°12'0 0.0
2014-Oct-16 10:31N 53°21' E 007°12'0 0.0
2014-Oct-16 09:28N 53°21' E 007°12'0 0.0
2014-Oct-16 08:31N 53°21' E 007°12'0 0.0
2014-Oct-16 07:31N 53°21' E 007°12'0 0.0
2014-Oct-16 06:31N 53°21' E 007°12'0 0.0
2014-Oct-16 05:31N 53°21' E 007°12'0 0.5
2014-Oct-16 04:33N 53°20' E 007°11'6 5.8
2014-Oct-16 03:33N 53°19' E 007°02'1312.9
2014-Oct-16 02:33N 53°30' E 006°49'1514.6
2014-Oct-16 01:33N 53°37' E 006°27'7 6.8
2014-Oct-16 00:34N 53°40' E 006°17'1212.0
2014-Oct-15 23:33N 53°51' E 006°09'1817.6
2014-Oct-15 22:34N 53°55' E 005°40'1717.3
2014-Oct-15 21:33N 53°59' E 005°11'1716.8
2014-Oct-15 20:33N 54°00' E 004°42'14115.7
2014-Oct-15 11:32N 53°35' E 000°46'1414.9
2014-Oct-15 10:34N 53°32' E 000°22'9 9.3
2014-Oct-15 09:33N 53°33' E 000°07'7 6.5
2014-Oct-15 08:32N 53°35' W 000°04'0 0.0
2014-Oct-15 07:32N 53°35' W 000°04'0 0.0
2014-Oct-15 06:29N 53°35' W 000°04'0 0.0
2014-Oct-15 05:32N 53°35' W 000°04'0 0.0
2014-Oct-15 04:32N 53°35' W 000°04'0 0.0
2014-Oct-15 03:32N 53°35' W 000°04'0 0.0
2014-Oct-15 02:32N 53°35' W 000°04'0 0.0
2014-Oct-15 01:29N 53°35' W 000°04'0 0.0
2014-Oct-15 00:32N 53°35' W 000°04'0 0.0
2014-Oct-14 23:26N 53°35' W 000°04'0 0.0
2014-Oct-14 22:32N 53°35' W 000°04'0 0.0
2014-Oct-14 21:29N 53°35' W 000°04'2 1.9
2014-Oct-14 20:33N 53°35' W 000°01'1010.1
2014-Oct-14 19:33N 53°33' E 000°16'7 6.8
2014-Oct-14 18:33N 53°33' E 000°27'1413.6
2014-Oct-14 17:33N 53°36' E 000°50'14011.5
2014-Oct-14 05:20N 54°03' E 004°43'1215.5
2014-Oct-14 04:33N 53°60' E 005°03'1615.7
2014-Oct-14 03:32N 53°56' E 005°30'1515.6
2014-Oct-14 02:34N 53°53' E 005°55'1413.5
2014-Oct-14 01:31N 53°45' E 006°14'1211.9
2014-Oct-14 00:33N 53°37' E 006°29'1313.3
2014-Oct-13 23:33N 53°30' E 006°48'1211.7
2014-Oct-13 22:33N 53°21' E 006°59'7 7.0
2014-Oct-13 21:33N 53°20' E 007°11'1 0.5
2014-Oct-13 20:32N 53°21' E 007°12'0 0.0
2014-Oct-13 19:32N 53°21' E 007°12'0 0.0
2014-Oct-13 18:32N 53°21' E 007°12'0 0.0
2014-Oct-13 17:32N 53°21' E 007°12'0 0.0
2014-Oct-13 16:32N 53°21' E 007°12'0 0.0
2014-Oct-13 15:32N 53°21' E 007°12'0 0.0
2014-Oct-13 14:32N 53°21' E 007°12'0 0.0
2014-Oct-13 13:32N 53°21' E 007°12'0 0.0
2014-Oct-13 12:32N 53°21' E 007°12'0 0.0
2014-Oct-13 11:32N 53°21' E 007°12'0 0.0
2014-Oct-13 10:32N 53°21' E 007°12'0 0.0
2014-Oct-13 09:33N 53°21' E 007°12'1 1.2
2014-Oct-13 08:34N 53°20' E 007°10'8 8.1
2014-Oct-13 07:33N 53°23' E 006°58'1313.1
2014-Oct-13 06:33N 53°33' E 006°42'1212.3
2014-Oct-13 05:33N 53°37' E 006°23'9 9.5
2014-Oct-13 04:33N 53°38' E 006°07'1312.6
2014-Oct-13 03:33N 53°37' E 005°46'1414.2
2014-Oct-13 02:33N 53°33' E 005°23'1414.4
2014-Oct-13 01:33N 53°28' E 005°01'1414.2
2014-Oct-13 00:33N 53°20' E 004°41'1515.1
2014-Oct-12 23:33N 53°07' E 004°29'1514.7
2014-Oct-12 22:33N 52°54' E 004°17'1414.0
2014-Oct-12 21:33N 52°43' E 004°03'1514.8
2014-Oct-12 20:33N 52°32' E 003°47'1515.3
2014-Oct-12 19:33N 52°21' E 003°29'1715.8
2014-Oct-12 18:28N 52°09' E 003°08'3315.8
2014-Oct-12 16:21N 51°51' E 002°23'1316.8
2014-Oct-12 15:33N 51°43' E 002°06'1717.4
2014-Oct-12 14:33N 51°32' E 001°43'1211.9
2014-Oct-12 13:34N 51°27' E 001°26'1110.9
2014-Oct-12 12:34N 51°29' E 001°09'1111.5
2014-Oct-12 11:34N 51°28' E 000°51'4 4.3
2014-Oct-12 10:32N 51°26' E 000°44'0 0.0
2014-Oct-12 09:32N 51°26' E 000°44'0 0.0
2014-Oct-12 08:32N 51°26' E 000°44'0 0.0
2014-Oct-12 07:32N 51°26' E 000°44'0 0.0
2014-Oct-12 06:32N 51°26' E 000°44'0 0.0
2014-Oct-12 05:32N 51°26' E 000°44'0 0.0
2014-Oct-12 04:29N 51°26' E 000°44'0 0.0
2014-Oct-12 03:32N 51°26' E 000°44'0 0.0
2014-Oct-12 02:32N 51°26' E 000°44'0 0.0
2014-Oct-12 01:32N 51°26' E 000°44'0 0.0
2014-Oct-12 00:32N 51°26' E 000°44'0 0.0
2014-Oct-11 23:32N 51°26' E 000°44'0 0.0
2014-Oct-11 22:32N 51°26' E 000°44'0 0.0
2014-Oct-11 21:32N 51°26' E 000°44'0 0.0
2014-Oct-11 20:32N 51°26' E 000°44'0 0.0
2014-Oct-11 19:32N 51°26' E 000°44'0 0.0
2014-Oct-11 18:32N 51°26' E 000°44'2 1.8
2014-Oct-11 17:33N 51°28' E 000°46'10 9.7
2014-Oct-11 16:33N 51°30' E 001°02'1111.2
2014-Oct-11 15:34N 51°29' E 001°19'10 9.6
2014-Oct-11 14:34N 51°28' E 001°35'1313.3
2014-Oct-11 13:33N 51°35' E 001°53'10 9.7
2014-Oct-11 12:33N 51°39' E 002°07'1 1.1
2014-Oct-11 11:33N 51°40' E 002°06'2 2.0
2014-Oct-11 10:33N 51°42' E 002°06'2 1.6
2014-Oct-11 09:33N 51°43' E 002°08'9 8.4
2014-Oct-11 08:32N 51°47' E 002°20'6014.4
2014-Oct-11 04:23N 52°32' E 003°24'1113.2
2014-Oct-11 03:34N 52°41' E 003°35'1413.6
2014-Oct-11 02:33N 52°52' E 003°49'1515.0
2014-Oct-11 01:33N 53°01' E 004°08'1615.3
2014-Oct-11 00:31N 53°12' E 004°27'  

Dump ship's entire track history